createdAt,value
2022-11-29T00:00:12.864Z,31.90
2022-11-29T00:03:00.385Z,28.17
2022-11-29T00:05:47.981Z,32.20
2022-11-29T00:08:36.100Z,33.40
2022-11-29T00:11:38.518Z,30.57
2022-11-29T00:14:27.554Z,32.43
2022-11-29T00:17:16.203Z,24.00
2022-11-29T00:20:03.421Z,34.77
2022-11-29T00:22:50.695Z,26.57
2022-11-29T00:25:39.452Z,30.37
2022-11-29T00:28:27.021Z,30.90
2022-11-29T00:31:16.793Z,30.20
2022-11-29T00:34:06.909Z,29.37
2022-11-29T00:36:54.356Z,27.77
2022-11-29T00:39:42.051Z,27.60
2022-11-29T00:42:29.244Z,28.17
2022-11-29T00:45:16.781Z,29.27
2022-11-29T00:48:04.076Z,31.03
2022-11-29T00:50:52.981Z,29.87
2022-11-29T00:53:40.966Z,28.27
2022-11-29T00:56:28.412Z,33.40
2022-11-29T00:59:15.517Z,30.90
2022-11-29T01:02:03.105Z,26.47
2022-11-29T01:04:50.270Z,29.50
2022-11-29T01:07:39.153Z,31.87
2022-11-29T01:10:26.805Z,35.23
2022-11-29T01:13:14.037Z,28.93
2022-11-29T01:16:01.397Z,28.77
2022-11-29T01:18:48.682Z,30.27
2022-11-29T01:21:36.140Z,30.53
2022-11-29T01:24:24.579Z,28.70
2022-11-29T01:27:11.644Z,33.57
2022-11-29T01:29:59.019Z,29.47
2022-11-29T01:32:46.509Z,30.50
2022-11-29T01:35:33.886Z,30.17
2022-11-29T01:38:22.823Z,30.00
2022-11-29T01:41:15.564Z,33.10
2022-11-29T01:44:04.993Z,29.10
2022-11-29T01:46:52.283Z,31.57
2022-11-29T01:49:42.549Z,29.73
2022-11-29T01:52:32.873Z,26.43
2022-11-29T01:55:20.416Z,28.83
2022-11-29T01:58:09.824Z,32.67
2022-11-29T02:00:58.674Z,26.83
2022-11-29T02:03:46.292Z,30.63
2022-11-29T02:06:35.360Z,33.97
2022-11-29T02:09:24.212Z,33.37
2022-11-29T02:12:23.132Z,32.83
2022-11-29T02:15:23.801Z,31.13
2022-11-29T02:18:14.673Z,35.37
2022-11-29T02:21:26.441Z,29.67
2022-11-29T02:24:49.491Z,31.80
2022-11-29T02:28:10.872Z,34.93
2022-11-29T02:31:32.046Z,31.20
2022-11-29T02:34:33.852Z,32.80
2022-11-29T02:37:48.478Z,34.17
2022-11-29T02:40:58.495Z,27.80
2022-11-29T02:47:43.533Z,33.93
2022-11-29T02:50:38.712Z,27.67
2022-11-29T02:53:33.277Z,30.67
2022-11-29T02:56:28.161Z,30.47
2022-11-29T02:59:25.991Z,33.83
2022-11-29T03:02:22.374Z,29.77
2022-11-29T03:05:19.617Z,30.50
2022-11-29T03:08:16.282Z,32.80
2022-11-29T03:11:13.936Z,27.57
2022-11-29T03:14:14.481Z,34.10
2022-11-29T03:17:14.866Z,31.87
2022-11-29T03:20:17.239Z,41.77
2022-11-29T03:23:15.648Z,33.40
2022-11-29T03:26:08.141Z,33.63
2022-11-29T03:29:01.246Z,33.13
2022-11-29T03:31:53.941Z,30.10
2022-11-29T03:34:57.326Z,35.77
2022-11-29T03:37:55.299Z,35.53
2022-11-29T03:40:51.136Z,29.20
2022-11-29T03:43:46.967Z,32.20
2022-11-29T03:46:40.971Z,30.90
2022-11-29T03:49:34.139Z,38.47
2022-11-29T03:52:28.524Z,31.90
2022-11-29T03:55:32.160Z,31.97
2022-11-29T03:58:45.710Z,31.43
2022-11-29T04:02:09.210Z,32.67
2022-11-29T04:05:28.375Z,39.40
2022-11-29T04:08:52.121Z,34.07
2022-11-29T04:12:19.968Z,36.27
2022-11-29T04:15:59.414Z,29.43
2022-11-29T04:19:23.797Z,32.10
2022-11-29T04:22:55.848Z,33.87
2022-11-29T04:26:18.284Z,34.17
2022-11-29T04:29:21.416Z,34.53
2022-11-29T04:32:28.105Z,34.50
2022-11-29T04:35:39.907Z,36.47
2022-11-29T04:38:49.393Z,35.57
2022-11-29T04:42:02.349Z,38.00
2022-11-29T04:45:06.117Z,33.17
2022-11-29T04:48:09.625Z,34.10
2022-11-29T04:51:08.839Z,38.00
2022-11-29T04:53:59.189Z,28.70
2022-11-29T04:56:48.661Z,34.07
2022-11-29T04:59:44.799Z,32.77
2022-11-29T05:02:37.978Z,36.10
2022-11-29T05:05:34.603Z,34.20
2022-11-29T05:08:32.132Z,31.73
2022-11-29T05:11:29.609Z,39.70
2022-11-29T05:14:26.156Z,35.37
2022-11-29T05:17:30.635Z,29.50
2022-11-29T05:20:35.156Z,34.37
2022-11-29T05:23:41.632Z,38.37
2022-11-29T05:26:33.469Z,31.90
2022-11-29T05:29:26.553Z,28.70
2022-11-29T05:32:28.504Z,35.50
2022-11-29T05:35:54.531Z,36.60
2022-11-29T05:39:13.650Z,39.43
2022-11-29T05:42:21.125Z,35.27
2022-11-29T05:45:16.271Z,35.53
2022-11-29T05:48:08.484Z,37.73
2022-11-29T05:51:09.136Z,37.53
2022-11-29T05:54:05.167Z,33.77
2022-11-29T05:57:06.926Z,31.17
2022-11-29T05:59:57.673Z,39.33
2022-11-29T06:02:52.712Z,34.80
2022-11-29T06:05:46.711Z,34.73
2022-11-29T06:08:43.033Z,34.73
2022-11-29T06:11:36.274Z,35.93
2022-11-29T06:14:46.449Z,36.27
2022-11-29T06:17:43.164Z,33.70
2022-11-29T06:20:52.207Z,32.60
2022-11-29T06:23:58.856Z,32.47
2022-11-29T06:27:07.975Z,36.43
2022-11-29T06:30:06.795Z,32.93
2022-11-29T06:33:01.148Z,29.10
2022-11-29T06:35:52.140Z,33.03
2022-11-29T06:38:39.628Z,33.40
2022-11-29T06:41:29.136Z,39.40
2022-11-29T06:44:17.120Z,34.40
2022-11-29T06:47:08.541Z,30.10
2022-11-29T06:50:02.584Z,35.07
2022-11-29T06:52:59.258Z,32.50
2022-11-29T06:55:57.233Z,33.33
2022-11-29T06:58:52.348Z,38.53
2022-11-29T07:01:45.849Z,28.00
2022-11-29T07:04:47.680Z,32.43
2022-11-29T07:07:36.052Z,33.10
2022-11-29T07:10:24.246Z,34.13
2022-11-29T07:13:13.785Z,32.00
2022-11-29T07:16:10.924Z,32.43
2022-11-29T07:19:07.971Z,33.13
2022-11-29T07:22:06.264Z,36.03
2022-11-29T07:25:01.741Z,30.43
2022-11-29T07:27:57.647Z,40.00
2022-11-29T07:30:54.320Z,31.60
2022-11-29T07:33:53.004Z,32.43
2022-11-29T07:36:50.681Z,31.73
2022-11-29T07:39:46.066Z,33.93
2022-11-29T07:42:53.109Z,32.83
2022-11-29T07:45:41.055Z,34.67
2022-11-29T07:48:28.241Z,30.40
2022-11-29T07:51:16.751Z,32.73
2022-11-29T07:54:04.021Z,33.60
2022-11-29T07:56:51.494Z,34.17
2022-11-29T07:59:39.034Z,35.30
2022-11-29T08:02:30.148Z,34.47
2022-11-29T08:05:18.372Z,32.53
2022-11-29T08:08:07.891Z,38.83
2022-11-29T08:10:55.344Z,33.40
2022-11-29T08:13:42.548Z,32.23
2022-11-29T08:16:29.964Z,31.30
2022-11-29T08:19:17.399Z,27.30
2022-11-29T08:22:04.887Z,32.60
2022-11-29T08:24:53.379Z,28.93
2022-11-29T08:27:40.731Z,31.40
2022-11-29T08:30:27.878Z,31.50
2022-11-29T08:33:15.248Z,34.27
2022-11-29T08:36:06.618Z,29.97
2022-11-29T08:39:01.271Z,31.57
2022-11-29T08:41:52.241Z,33.47
2022-11-29T08:44:39.337Z,34.77
2022-11-29T08:47:38.471Z,28.83
2022-11-29T08:50:25.740Z,31.43
2022-11-29T08:53:31.339Z,33.13
2022-11-29T08:59:29.149Z,28.27
2022-11-29T09:02:16.480Z,30.33
2022-11-29T09:05:04.094Z,26.70
2022-11-29T09:07:51.231Z,32.30
2022-11-29T09:10:39.735Z,29.73
2022-11-29T09:13:26.845Z,26.43
2022-11-29T09:16:18.881Z,31.10
2022-11-29T09:19:06.833Z,33.40
2022-11-29T09:21:54.092Z,29.40
2022-11-29T09:24:41.535Z,30.63
2022-11-29T09:27:29.069Z,30.33
2022-11-29T09:30:22.122Z,28.30
2022-11-29T09:33:12.103Z,29.40
2022-11-29T09:35:59.228Z,31.63
2022-11-29T09:38:46.631Z,32.30
2022-11-29T09:41:48.600Z,32.67
2022-11-29T09:44:50.489Z,29.43
2022-11-29T09:47:57.807Z,28.30
2022-11-29T09:50:49.548Z,28.13
2022-11-29T09:53:49.085Z,26.33
2022-11-29T09:56:41.614Z,27.37
2022-11-29T09:59:33.251Z,30.37
2022-11-29T10:02:26.323Z,36.00
2022-11-29T10:05:20.639Z,34.17
2022-11-29T10:08:16.625Z,23.53
2022-11-29T10:11:15.311Z,30.83
2022-11-29T10:14:09.150Z,29.13
2022-11-29T10:17:03.982Z,31.03
2022-11-29T10:19:54.897Z,24.93
2022-11-29T10:22:49.406Z,28.60
2022-11-29T10:25:46.188Z,30.43
2022-11-29T10:28:36.698Z,29.40
2022-11-29T10:31:26.976Z,29.57
2022-11-29T10:34:16.097Z,27.23
2022-11-29T10:37:03.581Z,29.20
2022-11-29T10:39:54.140Z,29.33
2022-11-29T10:42:55.625Z,26.17
2022-11-29T10:45:50.323Z,29.93
2022-11-29T10:48:37.412Z,30.73
2022-11-29T10:51:25.142Z,26.87
2022-11-29T10:54:35.581Z,30.77
2022-11-29T10:57:23.903Z,28.83
2022-11-29T11:00:15.209Z,32.93
2022-11-29T11:03:18.209Z,31.23
2022-11-29T11:06:12.283Z,31.03
2022-11-29T11:09:19.095Z,31.00
2022-11-29T11:12:08.893Z,32.63
2022-11-29T11:15:17.462Z,34.17
2022-11-29T11:18:07.460Z,28.63
2022-11-29T11:20:57.572Z,28.40
2022-11-29T11:23:53.118Z,32.80
2022-11-29T11:26:45.783Z,30.57
2022-11-29T11:29:37.017Z,31.20
2022-11-29T11:32:25.513Z,32.23
2022-11-29T11:35:24.275Z,33.20
2022-11-29T11:38:17.358Z,32.23
2022-11-29T11:41:13.626Z,26.97
2022-11-29T11:44:04.506Z,27.47
2022-11-29T11:46:58.445Z,33.53
2022-11-29T11:49:54.145Z,29.67
2022-11-29T11:52:50.055Z,32.17
2022-11-29T11:55:41.499Z,35.23
2022-11-29T11:58:30.261Z,30.77
2022-11-29T12:01:25.120Z,30.33
2022-11-29T12:04:16.281Z,31.30
2022-11-29T12:07:13.299Z,28.33
2022-11-29T12:10:05.856Z,32.80
2022-11-29T12:12:54.470Z,27.00
2022-11-29T12:15:44.863Z,30.00
2022-11-29T12:18:39.147Z,31.90
2022-11-29T12:21:30.372Z,28.63
2022-11-29T12:24:24.583Z,31.17
2022-11-29T12:27:15.552Z,33.03
2022-11-29T12:30:02.989Z,24.13
2022-11-29T12:33:06.378Z,29.83
2022-11-29T12:36:08.525Z,33.67
2022-11-29T12:39:16.147Z,25.27
2022-11-29T12:42:12.946Z,34.70
2022-11-29T12:45:12.724Z,33.27
2022-11-29T12:48:08.980Z,31.23
2022-11-29T12:51:07.044Z,30.13
2022-11-29T12:54:14.506Z,27.93
2022-11-29T12:57:12.054Z,26.90
2022-11-29T13:00:10.044Z,32.63
2022-11-29T13:03:07.859Z,31.80
2022-11-29T13:06:08.227Z,34.70
2022-11-29T13:09:09.647Z,29.80
2022-11-29T13:12:02.912Z,31.73
2022-11-29T13:14:57.937Z,31.40
2022-11-29T13:17:53.544Z,28.07
2022-11-29T13:20:46.005Z,35.33
2022-11-29T13:24:07.517Z,27.90
2022-11-29T13:26:49.739Z,31.97
2022-11-29T13:29:37.104Z,34.27
2022-11-29T13:32:35.160Z,32.00
2022-11-29T13:35:28.577Z,32.43
2022-11-29T13:38:23.715Z,31.40
2022-11-29T13:41:22.932Z,30.93
2022-11-29T13:44:22.339Z,31.73
2022-11-29T13:47:12.718Z,35.23
2022-11-29T13:50:03.531Z,33.10
2022-11-29T13:53:02.951Z,34.70
2022-11-29T13:56:00.077Z,34.60
2022-11-29T13:58:54.197Z,30.07
2022-11-29T14:01:47.628Z,28.33
2022-11-29T14:04:37.429Z,31.37
2022-11-29T14:07:26.087Z,37.20
2022-11-29T14:10:28.888Z,31.33
2022-11-29T14:13:17.309Z,30.37
2022-11-29T14:16:07.691Z,36.60
2022-11-29T14:19:07.961Z,31.13
2022-11-29T14:22:31.365Z,31.23
2022-11-29T14:28:36.103Z,34.53
2022-11-29T14:31:52.354Z,28.73
2022-11-29T14:34:47.680Z,30.10
2022-11-29T14:37:51.540Z,33.30
2022-11-29T14:40:50.388Z,31.93
2022-11-29T14:43:40.632Z,26.50
2022-11-29T14:46:32.416Z,34.57
2022-11-29T14:49:24.745Z,32.37
2022-11-29T14:52:22.226Z,33.33
2022-11-29T14:55:33.773Z,30.57
2022-11-29T14:58:22.717Z,34.00
2022-11-29T15:01:11.591Z,42.00
2022-11-29T15:03:59.516Z,35.03
2022-11-29T15:06:52.835Z,35.20
2022-11-29T15:09:43.083Z,31.87
2022-11-29T15:12:36.846Z,34.10
2022-11-29T15:15:38.106Z,36.27
2022-11-29T15:18:43.748Z,36.13
2022-11-29T15:21:39.985Z,36.70
2022-11-29T15:24:28.955Z,36.37
2022-11-29T15:27:18.077Z,29.67
2022-11-29T15:30:27.887Z,34.23
2022-11-29T15:33:22.017Z,35.47
2022-11-29T15:36:12.726Z,33.23
2022-11-29T15:39:01.492Z,35.57
2022-11-29T15:41:48.625Z,34.53
2022-11-29T15:44:36.041Z,36.77
2022-11-29T15:47:27.060Z,36.13
2022-11-29T15:50:25.707Z,35.97
2022-11-29T15:53:20.130Z,26.60
2022-11-29T15:56:15.706Z,40.83
2022-11-29T15:59:08.277Z,29.93
2022-11-29T16:01:58.223Z,34.87
2022-11-29T16:04:49.385Z,33.57
2022-11-29T16:07:37.249Z,35.47
2022-11-29T16:10:34.834Z,39.63
2022-11-29T16:13:37.241Z,34.90
2022-11-29T16:16:27.062Z,37.33
2022-11-29T16:19:30.269Z,34.80
2022-11-29T16:22:24.854Z,43.53
2022-11-29T16:25:18.726Z,38.07
2022-11-29T16:28:11.650Z,40.10
2022-11-29T16:31:04.764Z,37.80
2022-11-29T16:33:53.965Z,41.70
2022-11-29T16:36:42.361Z,37.43
2022-11-29T16:39:31.990Z,39.70
2022-11-29T16:42:25.763Z,35.73
2022-11-29T16:45:33.530Z,44.27
2022-11-29T16:48:31.444Z,37.57
2022-11-29T16:51:25.133Z,40.83
2022-11-29T16:54:25.139Z,41.17
2022-11-29T16:57:14.041Z,39.77
2022-11-29T17:00:01.377Z,35.37
2022-11-29T17:02:48.681Z,35.40
2022-11-29T17:05:41.637Z,42.77
2022-11-29T17:08:32.012Z,36.67
2022-11-29T17:11:19.717Z,37.60
2022-11-29T17:14:09.677Z,42.43
2022-11-29T17:16:57.165Z,39.27
2022-11-29T17:19:44.577Z,41.03
2022-11-29T17:22:32.077Z,39.43
2022-11-29T17:25:19.534Z,47.47
2022-11-29T17:28:06.739Z,39.73
2022-11-29T17:30:56.041Z,46.00
2022-11-29T17:33:51.077Z,40.67
2022-11-29T17:36:38.337Z,38.40
2022-11-29T17:39:25.682Z,41.27
2022-11-29T17:42:13.276Z,41.57
2022-11-29T17:45:00.819Z,35.83
2022-11-29T17:47:51.528Z,41.03
2022-11-29T17:50:39.256Z,31.00
2022-11-29T17:53:26.857Z,40.90
2022-11-29T17:56:16.484Z,39.37
2022-11-29T17:59:05.072Z,41.23
2022-11-29T18:01:52.468Z,38.17
2022-11-29T18:04:42.604Z,38.43
2022-11-29T18:07:30.157Z,36.27
2022-11-29T18:10:17.564Z,33.93
2022-11-29T18:13:04.677Z,39.63
2022-11-29T18:15:52.773Z,38.40
2022-11-29T18:18:40.626Z,33.70
2022-11-29T18:21:30.177Z,37.97
2022-11-29T18:24:17.807Z,42.70
2022-11-29T18:27:05.033Z,37.77
2022-11-29T18:29:52.177Z,23.43
2022-11-29T18:32:39.359Z,40.93
2022-11-29T18:35:28.025Z,38.00
2022-11-29T18:38:17.192Z,37.50
2022-11-29T18:41:07.798Z,31.83
2022-11-29T18:43:59.014Z,32.13
2022-11-29T18:46:46.687Z,36.60
2022-11-29T18:49:34.159Z,36.33
2022-11-29T18:52:21.691Z,42.33
2022-11-29T18:55:10.836Z,35.77
2022-11-29T18:57:58.152Z,38.40
2022-11-29T19:00:45.521Z,40.73
2022-11-29T19:03:35.071Z,38.23
2022-11-29T19:06:23.793Z,42.33
2022-11-29T19:09:14.912Z,38.13
2022-11-29T19:12:03.923Z,41.33
2022-11-29T19:14:51.372Z,39.87
2022-11-29T19:17:43.109Z,35.03
2022-11-29T19:20:34.323Z,34.73
2022-11-29T19:23:22.250Z,38.40
2022-11-29T19:26:11.496Z,39.23
2022-11-29T19:29:00.861Z,36.93
2022-11-29T19:31:48.130Z,36.50
2022-11-29T19:34:35.581Z,37.43
2022-11-29T19:37:23.013Z,40.70
2022-11-29T19:40:10.632Z,41.57
2022-11-29T19:42:57.986Z,41.87
2022-11-29T19:45:46.762Z,38.20
2022-11-29T19:48:33.991Z,42.30
2022-11-29T19:51:21.836Z,40.60
2022-11-29T19:54:10.520Z,41.07
2022-11-29T19:56:58.660Z,37.80
2022-11-29T19:59:46.176Z,42.67
2022-11-29T20:02:34.796Z,36.57
2022-11-29T20:05:21.669Z,37.90
2022-11-29T20:08:09.315Z,43.33
2022-11-29T20:10:56.912Z,41.47
2022-11-29T20:13:45.943Z,40.60
2022-11-29T20:16:33.293Z,37.80
2022-11-29T20:19:21.897Z,43.03
2022-11-29T20:22:09.098Z,46.60
2022-11-29T20:24:56.388Z,42.40
2022-11-29T20:27:43.713Z,39.80
2022-11-29T20:30:31.667Z,37.50
2022-11-29T20:33:23.302Z,41.10
2022-11-29T20:36:23.644Z,39.97
2022-11-29T20:39:29.095Z,42.23
2022-11-29T20:42:39.481Z,42.53
2022-11-29T20:45:27.313Z,40.00
2022-11-29T20:48:17.815Z,38.07
2022-11-29T20:51:06.016Z,48.10
2022-11-29T20:53:54.784Z,43.17
2022-11-29T20:56:41.804Z,41.53
2022-11-29T20:59:29.019Z,40.97
2022-11-29T21:02:16.666Z,37.10
2022-11-29T21:05:04.749Z,46.67
2022-11-29T21:07:52.329Z,42.30
2022-11-29T21:10:41.201Z,39.17
2022-11-29T21:13:29.133Z,43.73
2022-11-29T21:16:17.078Z,39.90
2022-11-29T21:19:05.358Z,45.97
2022-11-29T21:22:04.118Z,39.40
2022-11-29T21:25:00.064Z,44.77
2022-11-29T21:27:49.742Z,42.53
2022-11-29T21:30:37.772Z,41.53
2022-11-29T21:33:25.611Z,40.53
2022-11-29T21:36:13.948Z,40.53
2022-11-29T21:39:05.166Z,41.83
2022-11-29T21:41:52.882Z,46.93
2022-11-29T21:44:41.490Z,40.90
2022-11-29T21:47:28.531Z,48.67
2022-11-29T21:50:16.240Z,42.97
2022-11-29T21:53:03.654Z,40.80
2022-11-29T21:55:56.742Z,41.47
2022-11-29T21:58:44.349Z,49.17
2022-11-29T22:01:33.732Z,39.17
2022-11-29T22:04:21.204Z,41.00
2022-11-29T22:07:08.601Z,43.17
2022-11-29T22:09:56.115Z,43.23
2022-11-29T22:12:51.823Z,43.30
2022-11-29T22:15:39.937Z,45.67
2022-11-29T22:18:28.468Z,44.47
2022-11-29T22:21:15.565Z,40.13
2022-11-29T22:24:03.049Z,45.23
2022-11-29T22:26:51.728Z,42.60
2022-11-29T22:29:39.112Z,43.37
2022-11-29T22:32:26.527Z,40.73
2022-11-29T22:35:15.512Z,41.30
2022-11-29T22:38:02.987Z,42.57
2022-11-29T22:40:50.298Z,45.50
2022-11-29T22:43:38.782Z,41.43
2022-11-29T22:46:27.109Z,50.80
2022-11-29T22:49:14.518Z,42.07
2022-11-29T22:52:03.345Z,46.47
2022-11-29T22:54:50.593Z,46.30
2022-11-29T22:57:37.996Z,40.33
2022-11-29T23:00:25.328Z,43.37
2022-11-29T23:03:13.183Z,44.50
2022-11-29T23:06:04.713Z,43.40
2022-11-29T23:08:54.506Z,45.17
2022-11-29T23:11:42.162Z,45.87
2022-11-29T23:14:29.333Z,42.73
2022-11-29T23:17:16.723Z,46.33
2022-11-29T23:20:04.993Z,43.07
2022-11-29T23:22:52.559Z,40.03
2022-11-29T23:25:49.502Z,45.73
2022-11-29T23:28:37.425Z,42.77
2022-11-29T23:31:25.487Z,41.27
2022-11-29T23:34:14.803Z,47.60
2022-11-29T23:37:02.136Z,45.40
2022-11-29T23:39:49.572Z,43.90
2022-11-29T23:42:39.753Z,47.17
2022-11-29T23:45:28.676Z,44.60
2022-11-29T23:48:15.981Z,41.30
2022-11-29T23:51:03.206Z,44.83
2022-11-29T23:53:52.862Z,45.57
2022-11-29T23:56:40.308Z,46.83
2022-11-29T23:59:29.024Z,42.50
